Milwaukee, Wisconsin
Traffic Map
Current Weather Conditions
Milwaukee, Wisconsin
Few Clouds
Few Clouds
81°
Feels Like: 85°
Wind Chill: 81° Ceiling: Unl
Heat Index: 85° Visibility: 10mi
Dew Point: 71° Wind: 0mph
Humidity: 72% Direction: ° ()
Pressure: 29.93in Gusts: 0mph
Raw Report DataKMKE 250152Z 00000KT 10SM FEW060 FEW250 27/22 A2993 RMK AO2 SLP132 T02720217
Traffic Incident Summary
Active as of:
Severity:
Category:
InformationThere was an issue retrieving the traffic information for this location. Please try a different location or try again shortly.
Advertisements
Track Severe Weather on mobile